createdAt,value
2023-03-29T00:00:03.483Z,25.30
2023-03-29T00:02:42.793Z,23.40
2023-03-29T00:05:14.814Z,22.80
2023-03-29T00:07:45.322Z,21.00
2023-03-29T00:10:15.881Z,22.20
2023-03-29T00:12:46.341Z,22.70
2023-03-29T00:15:17.279Z,21.80
2023-03-29T00:17:47.800Z,21.30
2023-03-29T00:20:18.750Z,18.40
2023-03-29T00:22:49.165Z,19.90
2023-03-29T00:25:19.841Z,23.20
2023-03-29T00:27:50.300Z,19.40
2023-03-29T00:30:21.104Z,19.70
2023-03-29T00:32:51.925Z,26.20
2023-03-29T00:35:22.489Z,22.00
2023-03-29T00:37:52.990Z,20.80
2023-03-29T00:40:23.739Z,23.00
2023-03-29T00:42:56.319Z,24.20
2023-03-29T00:45:30.541Z,23.60
2023-03-29T00:48:04.380Z,18.70
2023-03-29T00:50:39.881Z,22.40
2023-03-29T00:53:14.757Z,23.50
2023-03-29T00:55:49.747Z,27.20
2023-03-29T00:58:26.357Z,22.20
2023-03-29T01:01:03.294Z,22.80
2023-03-29T01:03:41.600Z,24.60
2023-03-29T01:06:14.487Z,23.60
2023-03-29T01:08:50.452Z,22.10
2023-03-29T01:11:24.985Z,20.10
2023-03-29T01:14:00.731Z,20.60
2023-03-29T01:16:33.102Z,21.90
2023-03-29T01:19:05.588Z,19.30
2023-03-29T01:24:32.340Z,19.20
2023-03-29T01:27:12.577Z,20.50
2023-03-29T01:29:48.001Z,19.80
2023-03-29T01:32:23.583Z,22.20
2023-03-29T01:35:00.793Z,16.00
2023-03-29T01:37:36.372Z,22.50
2023-03-29T01:40:08.621Z,18.50
2023-03-29T01:42:48.858Z,20.40
2023-03-29T01:45:26.195Z,16.80
2023-03-29T01:48:02.446Z,22.90
2023-03-29T01:50:42.765Z,19.70
2023-03-29T01:53:20.663Z,22.80
2023-03-29T01:55:56.100Z,23.60
2023-03-29T01:58:34.934Z,15.00
2023-03-29T02:01:10.475Z,19.30
2023-03-29T02:03:43.928Z,18.20
2023-03-29T02:06:17.718Z,22.00
2023-03-29T02:08:49.797Z,16.90
2023-03-29T02:11:22.124Z,16.00
2023-03-29T02:16:22.365Z,17.70
2023-03-29T02:18:57.024Z,16.20
2023-03-29T02:21:31.502Z,13.60
2023-03-29T02:24:07.413Z,22.20
2023-03-29T02:26:37.997Z,18.30
2023-03-29T02:29:09.947Z,15.00
2023-03-29T02:31:46.361Z,18.80
2023-03-29T02:34:22.538Z,16.60
2023-03-29T02:36:56.872Z,19.20
2023-03-29T02:39:28.819Z,18.50
2023-03-29T02:42:00.489Z,15.50
2023-03-29T02:44:36.441Z,19.10
2023-03-29T02:47:14.912Z,14.30
2023-03-29T02:49:45.754Z,20.50
2023-03-29T02:52:20.999Z,15.90
2023-03-29T02:54:54.408Z,16.40
2023-03-29T02:57:26.795Z,18.00
2023-03-29T02:59:59.908Z,15.20
2023-03-29T03:02:30.642Z,17.40
2023-03-29T03:05:01.482Z,19.50
2023-03-29T03:07:32.033Z,16.60
2023-03-29T03:10:03.915Z,17.30
2023-03-29T03:12:34.426Z,16.20
2023-03-29T03:15:05.561Z,19.20
2023-03-29T03:17:40.026Z,15.50
2023-03-29T03:20:13.785Z,21.00
2023-03-29T03:22:49.213Z,16.60
2023-03-29T03:25:21.440Z,17.60
2023-03-29T03:27:53.275Z,17.70
2023-03-29T03:30:25.733Z,12.30
2023-03-29T03:33:15.080Z,13.60
2023-03-29T03:36:06.846Z,16.20
2023-03-29T03:38:40.057Z,13.40
2023-03-29T03:41:10.762Z,15.30
2023-03-29T03:43:43.953Z,17.00
2023-03-29T03:46:14.510Z,16.00
2023-03-29T03:48:45.338Z,18.70
2023-03-29T03:51:26.511Z,15.40
2023-03-29T03:53:56.950Z,18.30
2023-03-29T03:59:29.952Z,15.10
2023-03-29T04:02:05.002Z,13.80
2023-03-29T04:04:35.952Z,14.30
2023-03-29T04:07:13.257Z,12.40
2023-03-29T04:10:01.985Z,15.70
2023-03-29T04:12:44.171Z,13.10
2023-03-29T04:15:15.178Z,10.90
2023-03-29T04:17:50.388Z,15.50
2023-03-29T04:20:24.378Z,16.80
2023-03-29T04:22:55.691Z,14.70
2023-03-29T04:25:27.061Z,19.40
2023-03-29T04:28:16.274Z,24.10
2023-03-29T04:30:54.996Z,20.60
2023-03-29T04:33:47.546Z,17.60
2023-03-29T04:36:18.478Z,16.50
2023-03-29T04:38:49.087Z,14.00
2023-03-29T04:41:20.225Z,15.50
2023-03-29T04:44:16.871Z,13.30
2023-03-29T04:46:47.402Z,15.00
2023-03-29T04:49:36.461Z,16.30
2023-03-29T04:52:10.550Z,15.80
2023-03-29T04:54:41.301Z,15.90
2023-03-29T04:57:14.553Z,17.20
2023-03-29T04:59:56.817Z,17.40
2023-03-29T05:02:53.490Z,21.10
2023-03-29T05:05:24.570Z,14.80
2023-03-29T05:07:56.448Z,18.80
2023-03-29T05:10:31.057Z,13.90
2023-03-29T05:13:01.903Z,16.80
2023-03-29T05:15:33.296Z,14.60
2023-03-29T05:18:03.919Z,15.90
2023-03-29T05:20:34.724Z,16.60
2023-03-29T05:23:05.870Z,13.60
2023-03-29T05:26:02.813Z,13.80
2023-03-29T05:28:34.537Z,12.60
2023-03-29T05:31:07.007Z,17.90
2023-03-29T05:33:39.731Z,15.00
2023-03-29T05:36:14.121Z,13.30
2023-03-29T05:38:48.773Z,16.50
2023-03-29T05:41:19.716Z,15.50
2023-03-29T05:44:09.508Z,16.70
2023-03-29T05:46:40.330Z,14.80
2023-03-29T05:49:14.035Z,17.10
2023-03-29T05:51:59.514Z,13.80
2023-03-29T05:54:30.662Z,21.30
2023-03-29T05:57:01.768Z,17.40
2023-03-29T05:59:32.850Z,15.80
2023-03-29T06:02:04.983Z,15.20
2023-03-29T06:04:36.734Z,14.40
2023-03-29T06:07:27.615Z,13.20
2023-03-29T06:10:36.602Z,14.50
2023-03-29T06:13:27.417Z,13.50
2023-03-29T06:15:58.251Z,14.60
2023-03-29T06:18:29.394Z,16.80
2023-03-29T06:21:02.142Z,16.30
2023-03-29T06:26:02.517Z,16.10
2023-03-29T06:28:33.476Z,11.50
2023-03-29T06:31:05.280Z,12.20
2023-03-29T06:33:40.254Z,10.40
2023-03-29T06:36:38.027Z,12.30
2023-03-29T06:39:08.998Z,15.10
2023-03-29T06:42:13.057Z,11.70
2023-03-29T06:45:11.359Z,11.00
2023-03-29T06:47:42.263Z,18.50
2023-03-29T06:50:14.659Z,13.50
2023-03-29T06:52:54.915Z,17.10
2023-03-29T06:55:26.088Z,12.20
2023-03-29T06:57:57.879Z,13.10
2023-03-29T07:00:29.949Z,13.80
2023-03-29T07:03:14.862Z,11.80
2023-03-29T07:05:46.118Z,14.00
2023-03-29T07:08:18.913Z,14.00
2023-03-29T07:11:01.396Z,9.30
2023-03-29T07:14:11.472Z,9.40
2023-03-29T07:16:42.189Z,14.30
2023-03-29T07:19:22.751Z,13.70
2023-03-29T07:21:59.376Z,11.80
2023-03-29T07:24:40.044Z,11.20
2023-03-29T07:27:10.823Z,10.00
2023-03-29T07:29:41.370Z,9.70
2023-03-29T07:32:12.372Z,12.20
2023-03-29T07:34:46.308Z,10.40
2023-03-29T07:37:24.735Z,10.70
2023-03-29T07:39:56.822Z,11.10
2023-03-29T07:42:39.118Z,8.70
2023-03-29T07:45:14.396Z,14.60
2023-03-29T07:47:59.194Z,12.90
2023-03-29T07:50:32.771Z,8.60
2023-03-29T07:53:04.122Z,10.30
2023-03-29T07:55:35.624Z,8.70
2023-03-29T07:58:23.341Z,9.70
2023-03-29T08:00:53.908Z,9.70
2023-03-29T08:03:48.195Z,10.20
2023-03-29T08:06:18.810Z,9.30
2023-03-29T08:08:49.308Z,9.70
2023-03-29T08:11:21.044Z,10.30
2023-03-29T08:14:06.850Z,8.10
2023-03-29T08:16:57.639Z,8.50
2023-03-29T08:19:29.603Z,8.30
2023-03-29T08:22:07.168Z,8.10
2023-03-29T08:24:57.937Z,10.50
2023-03-29T08:27:32.279Z,9.50
2023-03-29T08:30:03.106Z,7.80
2023-03-29T08:32:36.150Z,9.20
2023-03-29T08:35:09.640Z,8.50
2023-03-29T08:37:46.139Z,10.60
2023-03-29T08:40:23.547Z,9.80
2023-03-29T08:43:18.541Z,9.60
2023-03-29T08:46:20.620Z,10.10
2023-03-29T08:48:57.085Z,9.70
2023-03-29T08:51:31.735Z,8.00
2023-03-29T08:54:06.852Z,9.00
2023-03-29T08:56:51.343Z,7.70
2023-03-29T08:59:32.175Z,11.20
2023-03-29T09:02:13.091Z,7.30
2023-03-29T09:04:44.503Z,9.30
2023-03-29T09:07:28.290Z,8.20
2023-03-29T09:09:59.797Z,8.50
2023-03-29T09:12:48.700Z,21.00
2023-03-29T09:18:09.322Z,8.20
2023-03-29T09:20:48.930Z,5.40
2023-03-29T09:23:40.124Z,10.40
2023-03-29T09:26:47.712Z,6.90
2023-03-29T09:29:45.010Z,6.10
2023-03-29T09:32:22.464Z,6.90
2023-03-29T09:35:04.903Z,12.00
2023-03-29T09:37:38.359Z,9.10
2023-03-29T09:40:16.653Z,11.40
2023-03-29T09:42:57.773Z,10.50
2023-03-29T09:45:28.415Z,7.90
2023-03-29T09:48:05.216Z,8.50
2023-03-29T09:50:40.821Z,8.10
2023-03-29T09:53:12.700Z,9.00
2023-03-29T09:55:50.318Z,9.00
2023-03-29T09:58:46.475Z,9.60
2023-03-29T10:01:19.046Z,7.50
2023-03-29T10:03:54.361Z,9.00
2023-03-29T10:06:27.827Z,7.90
2023-03-29T10:09:02.267Z,10.80
2023-03-29T10:11:39.489Z,7.90
2023-03-29T10:14:17.774Z,5.50
2023-03-29T10:16:55.818Z,8.50
2023-03-29T10:19:30.871Z,6.50
2023-03-29T10:22:04.449Z,11.00
2023-03-29T10:24:34.937Z,9.70
2023-03-29T10:27:08.439Z,9.20
2023-03-29T10:29:42.319Z,8.20
2023-03-29T10:32:27.776Z,8.60
2023-03-29T10:35:08.486Z,5.90
2023-03-29T10:37:43.641Z,10.10
2023-03-29T10:40:23.173Z,8.20
2023-03-29T10:42:54.942Z,7.00
2023-03-29T10:45:28.895Z,8.50
2023-03-29T10:48:00.118Z,9.60
2023-03-29T10:50:35.914Z,7.60
2023-03-29T10:53:14.039Z,8.90
2023-03-29T10:55:48.361Z,8.00
2023-03-29T10:58:32.127Z,10.10
2023-03-29T11:01:03.314Z,5.10
2023-03-29T11:04:04.099Z,7.00
2023-03-29T11:06:41.880Z,6.50
2023-03-29T11:09:24.403Z,5.80
2023-03-29T11:12:15.988Z,10.80
2023-03-29T11:14:57.252Z,6.40
2023-03-29T11:17:41.882Z,7.40
2023-03-29T11:20:22.411Z,7.20
2023-03-29T11:23:01.447Z,6.40
2023-03-29T11:25:42.742Z,8.30
2023-03-29T11:28:20.705Z,5.50
2023-03-29T11:30:59.634Z,8.30
2023-03-29T11:33:45.167Z,6.60
2023-03-29T11:36:22.238Z,8.60
2023-03-29T11:39:05.061Z,6.50
2023-03-29T11:41:39.631Z,6.80
2023-03-29T11:44:17.695Z,9.20
2023-03-29T11:46:54.108Z,7.80
2023-03-29T11:49:30.377Z,6.70
2023-03-29T11:52:09.070Z,7.40
2023-03-29T11:54:44.774Z,8.80
2023-03-29T11:57:20.605Z,7.50
2023-03-29T11:59:55.839Z,7.70
2023-03-29T12:02:34.250Z,6.20
2023-03-29T12:05:13.956Z,7.30
2023-03-29T12:07:51.836Z,4.60
2023-03-29T12:10:24.994Z,9.70
2023-03-29T12:13:01.789Z,6.30
2023-03-29T12:15:38.274Z,10.20
2023-03-29T12:18:22.423Z,8.60
2023-03-29T12:20:58.083Z,8.10
2023-03-29T12:23:33.147Z,7.80
2023-03-29T12:26:10.924Z,5.80
2023-03-29T12:29:09.963Z,5.50
2023-03-29T12:31:49.395Z,6.60
2023-03-29T12:34:34.334Z,5.80
2023-03-29T12:37:21.000Z,5.40
2023-03-29T12:40:16.881Z,8.60
2023-03-29T12:43:08.989Z,7.40
2023-03-29T12:46:20.419Z,8.50
2023-03-29T12:48:57.127Z,6.90
2023-03-29T12:51:32.895Z,7.00
2023-03-29T12:54:13.475Z,8.60
2023-03-29T12:56:55.648Z,5.90
2023-03-29T12:59:36.956Z,6.00
2023-03-29T13:02:37.598Z,6.70
2023-03-29T13:05:32.547Z,4.80
2023-03-29T13:08:20.595Z,5.40
2023-03-29T13:10:56.695Z,6.70
2023-03-29T13:13:32.138Z,6.80
2023-03-29T13:16:15.070Z,5.80
2023-03-29T13:19:03.103Z,6.60
2023-03-29T13:21:41.715Z,6.50
2023-03-29T13:24:28.717Z,6.30
2023-03-29T13:27:07.491Z,10.00
2023-03-29T13:30:01.218Z,11.20
2023-03-29T13:32:46.347Z,7.10
2023-03-29T13:35:28.874Z,6.60
2023-03-29T13:38:11.132Z,6.70
2023-03-29T13:40:58.826Z,7.70
2023-03-29T13:43:36.125Z,8.80
2023-03-29T13:46:22.522Z,8.10
2023-03-29T13:49:00.279Z,7.30
2023-03-29T13:51:39.366Z,6.80
2023-03-29T13:54:34.822Z,6.20
2023-03-29T13:57:11.221Z,7.00
2023-03-29T13:59:50.505Z,6.20
2023-03-29T14:02:32.453Z,6.90
2023-03-29T14:05:06.224Z,5.20
2023-03-29T14:07:42.738Z,5.70
2023-03-29T14:10:19.042Z,4.40
2023-03-29T14:12:51.104Z,5.30
2023-03-29T14:18:00.804Z,7.20
2023-03-29T14:20:34.483Z,5.70
2023-03-29T14:23:15.639Z,6.80
2023-03-29T14:25:46.813Z,6.20
2023-03-29T14:28:25.011Z,5.70
2023-03-29T14:30:56.870Z,7.60
2023-03-29T14:33:29.137Z,7.00
2023-03-29T14:36:02.478Z,4.80
2023-03-29T14:38:37.150Z,8.10
2023-03-29T14:41:08.576Z,4.90
2023-03-29T14:43:40.967Z,6.00
2023-03-29T14:46:13.224Z,7.40
2023-03-29T14:48:44.631Z,5.70
2023-03-29T14:51:15.749Z,4.60
2023-03-29T14:53:47.700Z,7.00
2023-03-29T14:56:24.106Z,5.30
2023-03-29T14:58:57.052Z,7.00
2023-03-29T15:01:28.594Z,5.70
2023-03-29T15:04:04.197Z,4.80
2023-03-29T15:06:39.393Z,5.90
2023-03-29T15:09:16.067Z,5.50
2023-03-29T15:11:54.427Z,7.50
2023-03-29T15:14:29.619Z,6.60
2023-03-29T15:17:04.665Z,6.60
2023-03-29T15:19:37.459Z,7.00
2023-03-29T15:22:11.855Z,5.30
2023-03-29T15:24:49.862Z,8.30
2023-03-29T15:27:22.008Z,6.80
2023-03-29T15:30:00.707Z,7.20
2023-03-29T15:32:38.449Z,5.50
2023-03-29T15:35:22.269Z,8.10
2023-03-29T15:37:53.823Z,6.70
2023-03-29T15:40:28.143Z,6.20
2023-03-29T15:42:58.685Z,7.10
2023-03-29T15:45:29.223Z,7.40
2023-03-29T15:48:02.026Z,8.40
2023-03-29T15:50:32.966Z,8.30
2023-03-29T15:53:14.682Z,7.00
2023-03-29T15:55:48.957Z,6.10
2023-03-29T15:58:21.754Z,6.60
2023-03-29T16:00:56.257Z,5.40
2023-03-29T16:03:28.232Z,6.20
2023-03-29T16:05:59.060Z,6.90
2023-03-29T16:08:29.543Z,6.00
2023-03-29T16:11:00.125Z,6.40
2023-03-29T16:13:31.776Z,7.70
2023-03-29T16:16:02.412Z,7.00
2023-03-29T16:18:33.350Z,8.40
2023-03-29T16:21:04.798Z,8.90
2023-03-29T16:23:35.428Z,7.10
2023-03-29T16:26:06.927Z,6.50
2023-03-29T16:28:37.754Z,9.60
2023-03-29T16:31:10.995Z,7.20
2023-03-29T16:33:42.260Z,6.10
2023-03-29T16:36:13.424Z,7.30
2023-03-29T16:38:43.894Z,6.20
2023-03-29T16:41:17.432Z,8.80
2023-03-29T16:43:47.969Z,8.60
2023-03-29T16:46:18.743Z,6.90
2023-03-29T16:48:51.584Z,6.80
2023-03-29T16:51:22.345Z,6.60
2023-03-29T16:53:53.766Z,6.70
2023-03-29T16:56:24.175Z,6.40
2023-03-29T16:58:54.765Z,7.70
2023-03-29T17:01:25.642Z,6.50
2023-03-29T17:03:57.135Z,7.30
2023-03-29T17:06:27.847Z,7.50
2023-03-29T17:08:59.102Z,6.20
2023-03-29T17:11:29.911Z,8.50
2023-03-29T17:14:00.562Z,5.60
2023-03-29T17:16:31.128Z,6.90
2023-03-29T17:19:01.795Z,7.20
2023-03-29T17:21:33.896Z,5.50
2023-03-29T17:24:04.460Z,6.70
2023-03-29T17:26:35.502Z,6.90
2023-03-29T17:29:06.408Z,8.50
2023-03-29T17:31:38.231Z,6.60
2023-03-29T17:36:38.396Z,8.90
2023-03-29T17:39:09.558Z,7.00
2023-03-29T17:41:40.351Z,8.00
2023-03-29T17:44:12.351Z,8.90
2023-03-29T17:49:11.860Z,8.00
2023-03-29T17:51:42.437Z,6.40
2023-03-29T17:54:13.215Z,6.90
2023-03-29T17:56:43.897Z,43.70
2023-03-29T17:59:14.511Z,12.70
2023-03-29T18:01:45.037Z,9.10
2023-03-29T18:04:15.701Z,6.90
2023-03-29T18:06:46.786Z,7.00
2023-03-29T18:09:17.221Z,8.30
2023-03-29T18:11:47.658Z,7.60
2023-03-29T18:14:18.206Z,6.70
2023-03-29T18:16:50.907Z,7.80
2023-03-29T18:19:21.544Z,9.10
2023-03-29T18:21:52.240Z,8.70
2023-03-29T18:24:22.812Z,9.40
2023-03-29T18:26:53.378Z,8.40
2023-03-29T18:29:23.968Z,9.50
2023-03-29T18:31:54.569Z,7.00
2023-03-29T18:34:25.124Z,10.10
2023-03-29T18:36:55.941Z,7.60
2023-03-29T18:39:27.328Z,8.60
2023-03-29T18:41:57.865Z,10.90
2023-03-29T18:44:28.356Z,7.50
2023-03-29T18:46:58.782Z,10.80
2023-03-29T18:49:29.351Z,9.00
2023-03-29T18:51:59.891Z,8.80
2023-03-29T18:54:30.595Z,10.30
2023-03-29T18:57:01.544Z,9.50
2023-03-29T18:59:32.038Z,9.80
2023-03-29T19:02:02.770Z,8.30
2023-03-29T19:04:33.414Z,10.30
2023-03-29T19:07:03.929Z,10.80
2023-03-29T19:09:35.777Z,9.80
2023-03-29T19:12:06.782Z,10.80
2023-03-29T19:14:37.259Z,13.80
2023-03-29T19:17:07.695Z,16.20
2023-03-29T19:19:38.193Z,13.40
2023-03-29T19:22:08.707Z,13.90
2023-03-29T19:24:39.181Z,17.60
2023-03-29T19:27:12.484Z,16.00
2023-03-29T19:29:43.244Z,14.60
2023-03-29T19:32:13.713Z,14.00
2023-03-29T19:34:44.217Z,11.00
2023-03-29T19:37:15.728Z,13.50
2023-03-29T19:39:46.212Z,11.70
2023-03-29T19:42:16.632Z,11.10
2023-03-29T19:44:47.140Z,13.70
2023-03-29T19:47:17.576Z,12.20
2023-03-29T19:49:48.013Z,11.70
2023-03-29T19:52:18.459Z,10.00
2023-03-29T19:54:48.937Z,14.10
2023-03-29T19:57:19.444Z,9.80
2023-03-29T19:59:50.049Z,9.20
2023-03-29T20:02:20.903Z,10.70
2023-03-29T20:04:52.872Z,10.40
2023-03-29T20:07:23.354Z,10.00
2023-03-29T20:09:53.795Z,11.00
2023-03-29T20:12:24.273Z,10.10
2023-03-29T20:14:54.756Z,9.30
2023-03-29T20:17:25.285Z,11.00
2023-03-29T20:19:55.886Z,10.60
2023-03-29T20:22:26.475Z,11.00
2023-03-29T20:24:57.046Z,10.30
2023-03-29T20:27:29.485Z,9.70
2023-03-29T20:30:00.054Z,9.70
2023-03-29T20:32:31.132Z,9.70
2023-03-29T20:35:01.685Z,11.00
2023-03-29T20:37:32.159Z,12.30
2023-03-29T20:40:05.478Z,13.10
2023-03-29T20:42:38.275Z,10.20
2023-03-29T20:45:18.741Z,11.20
2023-03-29T20:47:57.843Z,12.60
2023-03-29T20:50:28.987Z,15.30
2023-03-29T20:53:02.228Z,15.20
2023-03-29T20:55:34.063Z,14.50
2023-03-29T20:58:04.930Z,14.30
2023-03-29T21:00:37.612Z,15.10
2023-03-29T21:03:08.801Z,14.20
2023-03-29T21:05:39.650Z,14.50
2023-03-29T21:08:10.136Z,15.20
2023-03-29T21:10:42.417Z,14.80
2023-03-29T21:13:12.913Z,11.70
2023-03-29T21:15:43.832Z,14.00
2023-03-29T21:18:14.330Z,13.50
2023-03-29T21:20:45.359Z,11.10
2023-03-29T21:23:15.858Z,12.30
2023-03-29T21:25:46.345Z,13.80
2023-03-29T21:28:16.761Z,15.10
2023-03-29T21:30:47.231Z,10.60
2023-03-29T21:33:17.732Z,12.80
2023-03-29T21:35:50.052Z,11.10
2023-03-29T21:38:21.541Z,12.70
2023-03-29T21:40:52.050Z,12.60
2023-03-29T21:43:22.544Z,12.90
2023-03-29T21:45:53.106Z,10.90
2023-03-29T21:48:23.621Z,10.80
2023-03-29T21:50:54.160Z,12.20
2023-03-29T21:53:25.022Z,13.50
2023-03-29T21:55:55.528Z,11.80
2023-03-29T21:58:26.236Z,12.20
2023-03-29T22:00:57.326Z,13.20
2023-03-29T22:03:28.381Z,15.00
2023-03-29T22:06:01.818Z,14.00
2023-03-29T22:08:33.103Z,15.40
2023-03-29T22:11:08.856Z,13.20
2023-03-29T22:13:39.973Z,14.20
2023-03-29T22:16:13.893Z,13.60
2023-03-29T22:18:46.983Z,13.60
2023-03-29T22:21:19.418Z,13.20
2023-03-29T22:23:52.326Z,12.90
2023-03-29T22:26:27.644Z,12.60
2023-03-29T22:28:59.912Z,10.70
2023-03-29T22:31:33.572Z,10.20
2023-03-29T22:34:04.472Z,11.20
2023-03-29T22:36:36.836Z,11.00
2023-03-29T22:39:08.098Z,12.90
2023-03-29T22:41:38.622Z,11.30
2023-03-29T22:44:09.870Z,10.40
2023-03-29T22:46:40.336Z,10.40
2023-03-29T22:49:10.800Z,10.10
2023-03-29T22:51:41.286Z,11.50
2023-03-29T22:54:12.078Z,9.70
2023-03-29T22:56:42.621Z,9.60
2023-03-29T22:59:13.362Z,12.40
2023-03-29T23:01:43.899Z,10.80
2023-03-29T23:04:14.659Z,10.10
2023-03-29T23:06:45.182Z,10.40
2023-03-29T23:09:16.595Z,11.40
2023-03-29T23:11:47.240Z,11.10
2023-03-29T23:14:19.101Z,12.40
2023-03-29T23:16:50.459Z,11.50
2023-03-29T23:19:20.997Z,10.10
2023-03-29T23:21:52.890Z,11.80
2023-03-29T23:24:23.674Z,8.70
2023-03-29T23:26:55.426Z,11.80
2023-03-29T23:29:26.379Z,10.10
2023-03-29T23:31:57.275Z,12.00
2023-03-29T23:34:27.758Z,10.00
2023-03-29T23:36:58.264Z,10.80
2023-03-29T23:39:28.741Z,10.00
2023-03-29T23:41:59.322Z,9.10
2023-03-29T23:44:30.558Z,11.50
2023-03-29T23:47:01.365Z,11.70
2023-03-29T23:49:32.260Z,9.80
2023-03-29T23:52:02.749Z,13.20
2023-03-29T23:54:33.319Z,10.90
2023-03-29T23:57:03.782Z,9.30
2023-03-29T23:59:37.826Z,9.30
